sensor_id;sensor_type;location;lat;lon;timestamp;pressure;altitude;pressure_sealevel;temperature;humidity
26635;BME280;14490;54.208;37.686;2023-06-04T00:01:32;99496.63;;;7.72;100.00
26635;BME280;14490;54.208;37.686;2023-06-04T00:04:00;99496.75;;;7.71;100.00
26635;BME280;14490;54.208;37.686;2023-06-04T00:06:29;99512.91;;;7.69;100.00
26635;BME280;14490;54.208;37.686;2023-06-04T00:08:56;99501.16;;;7.59;100.00
26635;BME280;14490;54.208;37.686;2023-06-04T00:11:23;99507.78;;;7.66;100.00
26635;BME280;14490;54.208;37.686;2023-06-04T00:13:52;99516.81;;;7.65;100.00
26635;BME280;14490;54.208;37.686;2023-06-04T00:16:19;99515.28;;;7.61;100.00
26635;BME280;14490;54.208;37.686;2023-06-04T00:18:46;99524.28;;;7.60;100.00
26635;BME280;14490;54.208;37.686;2023-06-04T00:21:14;99515.50;;;7.58;100.00
26635;BME280;14490;54.208;37.686;2023-06-04T00:23:43;99517.44;;;7.56;100.00
26635;BME280;14490;54.208;37.686;2023-06-04T00:26:10;99522.88;;;7.55;100.00
26635;BME280;14490;54.208;37.686;2023-06-04T00:28:37;99522.22;;;7.51;100.00
26635;BME280;14490;54.208;37.686;2023-06-04T00:31:05;99495.97;;;7.31;100.00
26635;BME280;14490;54.208;37.686;2023-06-04T00:33:32;99530.47;;;7.48;100.00
26635;BME280;14490;54.208;37.686;2023-06-04T00:36:01;99528.13;;;7.44;100.00
26635;BME280;14490;54.208;37.686;2023-06-04T00:38:28;99532.41;;;7.46;100.00
26635;BME280;14490;54.208;37.686;2023-06-04T00:40:57;99532.81;;;7.40;100.00
26635;BME280;14490;54.208;37.686;2023-06-04T00:43:24;99530.16;;;7.40;100.00
26635;BME280;14490;54.208;37.686;2023-06-04T00:45:52;99539.91;;;7.41;100.00
26635;BME280;14490;54.208;37.686;2023-06-04T00:48:21;99548.88;;;7.40;100.00
26635;BME280;14490;54.208;37.686;2023-06-04T00:50:48;99548.16;;;7.38;100.00
26635;BME280;14490;54.208;37.686;2023-06-04T00:53:16;99559.81;;;7.37;100.00
26635;BME280;14490;54.208;37.686;2023-06-04T00:55:43;99556.25;;;7.37;100.00
26635;BME280;14490;54.208;37.686;2023-06-04T00:58:12;99570.50;;;7.37;100.00
26635;BME280;14490;54.208;37.686;2023-06-04T01:00:41;99567.84;;;7.37;100.00
26635;BME280;14490;54.208;37.686;2023-06-04T01:03:14;99570.50;;;7.37;100.00
26635;BME280;14490;54.208;37.686;2023-06-04T01:05:53;99563.63;;;7.33;100.00
26635;BME280;14490;54.208;37.686;2023-06-04T01:08:26;99580.16;;;7.40;100.00
26635;BME280;14490;54.208;37.686;2023-06-04T01:10:54;99573.28;;;7.36;100.00
26635;BME280;14490;54.208;37.686;2023-06-04T01:13:24;99588.09;;;7.41;100.00
26635;BME280;14490;54.208;37.686;2023-06-04T01:15:51;99581.22;;;7.37;100.00
26635;BME280;14490;54.208;37.686;2023-06-04T01:18:24;99591.72;;;7.40;100.00
26635;BME280;14490;54.208;37.686;2023-06-04T01:20:58;99572.44;;;7.35;100.00
26635;BME280;14490;54.208;37.686;2023-06-04T01:23:32;99565.78;;;7.28;100.00
26635;BME280;14490;54.208;37.686;2023-06-04T01:26:05;99591.72;;;7.40;100.00
26635;BME280;14490;54.208;37.686;2023-06-04T01:28:34;99594.06;;;7.45;100.00
26635;BME280;14490;54.208;37.686;2023-06-04T01:31:03;99596.66;;;7.46;100.00
26635;BME280;14490;54.208;37.686;2023-06-04T01:33:33;99590.34;;;7.47;100.00
26635;BME280;14490;54.208;37.686;2023-06-04T01:36:01;99582.63;;;7.43;100.00
26635;BME280;14490;54.208;37.686;2023-06-04T01:38:28;99587.69;;;7.47;100.00
26635;BME280;14490;54.208;37.686;2023-06-04T01:40:56;99582.34;;;7.47;100.00
26635;BME280;14490;54.208;37.686;2023-06-04T01:43:27;99560.00;;;7.34;100.00
26635;BME280;14490;54.208;37.686;2023-06-04T01:45:57;99593.78;;;7.49;100.00
26635;BME280;14490;54.208;37.686;2023-06-04T01:48:24;99599.66;;;7.54;100.00
26635;BME280;14490;54.208;37.686;2023-06-04T01:50:52;99604.63;;;7.60;100.00
26635;BME280;14490;54.208;37.686;2023-06-04T01:53:19;99598.41;;;7.60;100.00
26635;BME280;14490;54.208;37.686;2023-06-04T01:55:46;99593.59;;;7.65;100.00
26635;BME280;14490;54.208;37.686;2023-06-04T01:58:14;99611.06;;;7.70;100.00
26635;BME280;14490;54.208;37.686;2023-06-04T02:00:43;99610.66;;;7.77;100.00
26635;BME280;14490;54.208;37.686;2023-06-04T02:03:12;99610.22;;;7.83;100.00
26635;BME280;14490;54.208;37.686;2023-06-04T02:05:41;99600.47;;;7.82;100.00
26635;BME280;14490;54.208;37.686;2023-06-04T02:08:10;99614.53;;;7.98;100.00
26635;BME280;14490;54.208;37.686;2023-06-04T02:10:37;99612.94;;;8.08;100.00
26635;BME280;14490;54.208;37.686;2023-06-04T02:13:05;99610.06;;;8.11;100.00
26635;BME280;14490;54.208;37.686;2023-06-04T02:15:33;99594.72;;;8.13;100.00
26635;BME280;14490;54.208;37.686;2023-06-04T02:18:13;99583.13;;;8.12;100.00
26635;BME280;14490;54.208;37.686;2023-06-04T02:20:43;99625.72;;;8.42;100.00
26635;BME280;14490;54.208;37.686;2023-06-04T02:23:11;99619.81;;;8.50;100.00
26635;BME280;14490;54.208;37.686;2023-06-04T02:25:39;99619.16;;;8.59;100.00
26635;BME280;14490;54.208;37.686;2023-06-04T02:28:06;99615.38;;;8.61;100.00
26635;BME280;14490;54.208;37.686;2023-06-04T02:30:34;99621.81;;;8.71;100.00
26635;BME280;14490;54.208;37.686;2023-06-04T02:33:02;99622.47;;;8.75;100.00
26635;BME280;14490;54.208;37.686;2023-06-04T02:35:31;99626.53;;;8.81;100.00
26635;BME280;14490;54.208;37.686;2023-06-04T02:37:58;99627.03;;;8.86;100.00
26635;BME280;14490;54.208;37.686;2023-06-04T02:40:26;99631.00;;;8.93;100.00
26635;BME280;14490;54.208;37.686;2023-06-04T02:42:54;99603.34;;;8.79;100.00
26635;BME280;14490;54.208;37.686;2023-06-04T02:45:22;99635.25;;;9.08;100.00
26635;BME280;14490;54.208;37.686;2023-06-04T02:47:49;99643.72;;;9.14;100.00
26635;BME280;14490;54.208;37.686;2023-06-04T02:50:17;99643.13;;;9.22;100.00
26635;BME280;14490;54.208;37.686;2023-06-04T02:52:46;99643.69;;;9.27;100.00
26635;BME280;14490;54.208;37.686;2023-06-04T02:55:14;99644.19;;;9.32;100.00
26635;BME280;14490;54.208;37.686;2023-06-04T02:57:42;99658.13;;;9.37;100.00
26635;BME280;14490;54.208;37.686;2023-06-04T03:00:10;99660.81;;;9.37;100.00
26635;BME280;14490;54.208;37.686;2023-06-04T03:02:40;99667.44;;;9.44;100.00
26635;BME280;14490;54.208;37.686;2023-06-04T03:05:09;99665.22;;;9.38;100.00
26635;BME280;14490;54.208;37.686;2023-06-04T03:07:41;99653.19;;;9.31;100.00
26635;BME280;14490;54.208;37.686;2023-06-04T03:10:12;99676.47;;;9.43;100.00
26635;BME280;14490;54.208;37.686;2023-06-04T03:12:41;99682.59;;;9.45;100.00
26635;BME280;14490;54.208;37.686;2023-06-04T03:15:09;99653.19;;;9.31;100.00
26635;BME280;14490;54.208;37.686;2023-06-04T03:17:36;99686.75;;;9.49;100.00
26635;BME280;14490;54.208;37.686;2023-06-04T03:20:05;99691.38;;;9.47;100.00
26635;BME280;14490;54.208;37.686;2023-06-04T03:22:33;99687.84;;;9.47;100.00
26635;BME280;14490;54.208;37.686;2023-06-04T03:25:01;99691.25;;;9.49;100.00
26635;BME280;14490;54.208;37.686;2023-06-04T03:27:32;99691.16;;;9.50;100.00
26635;BME280;14490;54.208;37.686;2023-06-04T03:29:59;99696.53;;;9.50;100.00
26635;BME280;14490;54.208;37.686;2023-06-04T03:32:27;99698.25;;;9.51;100.00
26635;BME280;14490;54.208;37.686;2023-06-04T03:34:54;99698.25;;;9.51;100.00
26635;BME280;14490;54.208;37.686;2023-06-04T03:37:22;99700.19;;;9.49;100.00
26635;BME280;14490;54.208;37.686;2023-06-04T03:39:49;99688.44;;;9.39;100.00
26635;BME280;14490;54.208;37.686;2023-06-04T03:42:16;99699.91;;;9.41;100.00
26635;BME280;14490;54.208;37.686;2023-06-04T03:44:45;99666.34;;;9.23;100.00
26635;BME280;14490;54.208;37.686;2023-06-04T03:47:13;99698.19;;;9.40;100.00
26635;BME280;14490;54.208;37.686;2023-06-04T03:49:40;99701.84;;;9.39;100.00
26635;BME280;14490;54.208;37.686;2023-06-04T03:52:07;99653.81;;;9.11;100.00
26635;BME280;14490;54.208;37.686;2023-06-04T03:54:35;99710.22;;;9.34;100.00
26635;BME280;14490;54.208;37.686;2023-06-04T03:57:02;99706.69;;;9.34;100.00
26635;BME280;14490;54.208;37.686;2023-06-04T03:59:30;99707.44;;;9.36;100.00
26635;BME280;14490;54.208;37.686;2023-06-04T04:01:59;99710.13;;;9.36;100.00
26635;BME280;14490;54.208;37.686;2023-06-04T04:04:26;99684.63;;;9.18;100.00
26635;BME280;14490;54.208;37.686;2023-06-04T04:06:58;99712.06;;;9.34;100.00
26635;BME280;14490;54.208;37.686;2023-06-04T04:09:26;99733.22;;;9.39;100.00
26635;BME280;14490;54.208;37.686;2023-06-04T04:11:53;99725.81;;;9.42;100.00
26635;BME280;14490;54.208;37.686;2023-06-04T04:14:21;99734.38;;;9.47;100.00
26635;BME280;14490;54.208;37.686;2023-06-04T04:16:48;99706.47;;;9.37;100.00
26635;BME280;14490;54.208;37.686;2023-06-04T04:19:18;99710.53;;;9.43;100.00
26635;BME280;14490;54.208;37.686;2023-06-04T04:21:46;99734.16;;;9.50;100.00
26635;BME280;14490;54.208;37.686;2023-06-04T04:24:22;99738.66;;;9.50;100.00
26635;BME280;14490;54.208;37.686;2023-06-04T04:26:50;99714.19;;;9.42;100.00
26635;BME280;14490;54.208;37.686;2023-06-04T04:29:19;99724.31;;;9.62;100.00
26635;BME280;14490;54.208;37.686;2023-06-04T04:31:48;99738.91;;;9.70;100.00
26635;BME280;14490;54.208;37.686;2023-06-04T04:34:17;99739.44;;;9.75;100.00
26635;BME280;14490;54.208;37.686;2023-06-04T04:36:47;99741.66;;;9.81;100.00
26635;BME280;14490;54.208;37.686;2023-06-04T04:39:18;99743.03;;;9.87;100.00
26635;BME280;14490;54.208;37.686;2023-06-04T04:41:46;99711.34;;;9.79;100.00
26635;BME280;14490;54.208;37.686;2023-06-04T04:44:13;99742.38;;;10.07;100.00
26635;BME280;14490;54.208;37.686;2023-06-04T04:46:41;99749.78;;;10.16;100.00
26635;BME280;14490;54.208;37.686;2023-06-04T04:49:08;99743.94;;;10.22;100.00
26635;BME280;14490;54.208;37.686;2023-06-04T04:51:37;99743.13;;;10.33;100.00
26635;BME280;14490;54.208;37.686;2023-06-04T04:54:04;99740.69;;;10.41;100.00
26635;BME280;14490;54.208;37.686;2023-06-04T04:56:33;99739.72;;;10.42;100.00
26635;BME280;14490;54.208;37.686;2023-06-04T04:59:01;99752.97;;;10.56;100.00
26635;BME280;14490;54.208;37.686;2023-06-04T05:01:28;99743.44;;;10.63;100.00
26635;BME280;14490;54.208;37.686;2023-06-04T05:03:56;99760.81;;;10.70;100.00
26635;BME280;14490;54.208;37.686;2023-06-04T05:06:23;99724.59;;;10.63;100.00
26635;BME280;14490;54.208;37.686;2023-06-04T05:08:52;99737.81;;;10.77;100.00
26635;BME280;14490;54.208;37.686;2023-06-04T05:11:19;99754.97;;;10.87;100.00
26635;BME280;14490;54.208;37.686;2023-06-04T05:13:47;99756.19;;;10.94;100.00
26635;BME280;14490;54.208;37.686;2023-06-04T05:16:15;99745.69;;;11.03;100.00
26635;BME280;14490;54.208;37.686;2023-06-04T05:18:46;99728.53;;;11.04;100.00
26635;BME280;14490;54.208;37.686;2023-06-04T05:21:13;99730.25;;;11.16;100.00
26635;BME280;14490;54.208;37.686;2023-06-04T05:23:41;99747.13;;;11.29;100.00
26635;BME280;14490;54.208;37.686;2023-06-04T05:26:12;99738.81;;;11.32;100.00
26635;BME280;14490;54.208;37.686;2023-06-04T05:28:40;99739.91;;;11.40;100.00
26635;BME280;14490;54.208;37.686;2023-06-04T05:31:09;99739.03;;;11.40;100.00
26635;BME280;14490;54.208;37.686;2023-06-04T05:33:38;99720.44;;;11.26;100.00
26635;BME280;14490;54.208;37.686;2023-06-04T05:36:06;99735.13;;;11.44;100.00
26635;BME280;14490;54.208;37.686;2023-06-04T05:38:33;99731.19;;;11.48;100.00
26635;BME280;14490;54.208;37.686;2023-06-04T05:41:01;99733.88;;;11.59;100.00
26635;BME280;14490;54.208;37.686;2023-06-04T05:43:30;99743.91;;;11.68;100.00
26635;BME280;14490;54.208;37.686;2023-06-04T05:45:57;99730.09;;;11.73;100.00
26635;BME280;14490;54.208;37.686;2023-06-04T05:48:25;99711.06;;;11.63;100.00
26635;BME280;14490;54.208;37.686;2023-06-04T05:50:52;99755.78;;;11.88;100.00
26635;BME280;14490;54.208;37.686;2023-06-04T05:53:20;99748.81;;;11.85;100.00
26635;BME280;14490;54.208;37.686;2023-06-04T05:55:47;99754.66;;;11.90;100.00
26635;BME280;14490;54.208;37.686;2023-06-04T05:58:15;99750.22;;;12.00;100.00
26635;BME280;14490;54.208;37.686;2023-06-04T06:00:44;99752.41;;;12.07;100.00
26635;BME280;14490;54.208;37.686;2023-06-04T06:03:11;99750.28;;;12.10;100.00
26635;BME280;14490;54.208;37.686;2023-06-04T06:05:42;99757.75;;;12.18;100.00
26635;BME280;14490;54.208;37.686;2023-06-04T06:08:09;99740.31;;;12.22;100.00
26635;BME280;14490;54.208;37.686;2023-06-04T06:10:36;99755.16;;;12.48;100.00
26635;BME280;14490;54.208;37.686;2023-06-04T06:13:04;99751.66;;;12.78;100.00
26635;BME280;14490;54.208;37.686;2023-06-04T06:15:31;99739.50;;;12.93;100.00
26635;BME280;14490;54.208;37.686;2023-06-04T06:18:00;99736.44;;;12.97;100.00
26635;BME280;14490;54.208;37.686;2023-06-04T06:20:28;99753.78;;;13.04;100.00
26635;BME280;14490;54.208;37.686;2023-06-04T06:22:55;99744.97;;;13.02;100.00
26635;BME280;14490;54.208;37.686;2023-06-04T06:25:22;99743.72;;;13.06;100.00
26635;BME280;14490;54.208;37.686;2023-06-04T06:27:50;99743.66;;;13.18;100.00
26635;BME280;14490;54.208;37.686;2023-06-04T06:30:17;99743.47;;;13.40;100.00
26635;BME280;14490;54.208;37.686;2023-06-04T06:32:44;99737.94;;;13.51;100.00
26635;BME280;14490;54.208;37.686;2023-06-04T06:35:15;99738.66;;;13.53;100.00
26635;BME280;14490;54.208;37.686;2023-06-04T06:37:44;99717.00;;;13.53;100.00
26635;BME280;14490;54.208;37.686;2023-06-04T06:40:11;99755.09;;;13.80;100.00
26635;BME280;14490;54.208;37.686;2023-06-04T06:42:39;99753.25;;;13.90;100.00
26635;BME280;14490;54.208;37.686;2023-06-04T06:45:07;99753.00;;;14.03;100.00
26635;BME280;14490;54.208;37.686;2023-06-04T06:47:34;99750.72;;;14.17;100.00
26635;BME280;14490;54.208;37.686;2023-06-04T06:50:02;99735.34;;;14.28;100.00
26635;BME280;14490;54.208;37.686;2023-06-04T06:52:31;99743.34;;;14.39;100.00
26635;BME280;14490;54.208;37.686;2023-06-04T06:54:58;99711.13;;;14.26;100.00
26635;BME280;14490;54.208;37.686;2023-06-04T06:57:26;99744.50;;;14.55;100.00
26635;BME280;14490;54.208;37.686;2023-06-04T06:59:53;99746.44;;;14.72;100.00
26635;BME280;14490;54.208;37.686;2023-06-04T07:02:21;99751.66;;;14.93;100.00
26635;BME280;14490;54.208;37.686;2023-06-04T07:04:48;99740.91;;;15.11;100.00
26635;BME280;14490;54.208;37.686;2023-06-04T07:07:15;99743.16;;;15.25;100.00
26635;BME280;14490;54.208;37.686;2023-06-04T07:09:44;99745.16;;;15.23;100.00
26635;BME280;14490;54.208;37.686;2023-06-04T07:12:12;99746.31;;;15.20;100.00
26635;BME280;14490;54.208;37.686;2023-06-04T07:14:39;99741.91;;;15.19;100.00
26635;BME280;14490;54.208;37.686;2023-06-04T07:17:06;99745.16;;;15.23;100.00
26635;BME280;14490;54.208;37.686;2023-06-04T07:19:34;99730.97;;;15.02;100.00
26635;BME280;14490;54.208;37.686;2023-06-04T07:22:01;99746.09;;;15.04;100.00
26635;BME280;14490;54.208;37.686;2023-06-04T07:24:28;99750.88;;;15.20;100.00
26635;BME280;14490;54.208;37.686;2023-06-04T07:26:57;99746.66;;;15.35;100.00
26635;BME280;14490;54.208;37.686;2023-06-04T07:29:25;99730.75;;;15.22;100.00
26635;BME280;14490;54.208;37.686;2023-06-04T07:31:52;99753.53;;;15.29;100.00
26635;BME280;14490;54.208;37.686;2023-06-04T07:34:19;99759.69;;;15.31;100.00
26635;BME280;14490;54.208;37.686;2023-06-04T07:36:47;99762.13;;;15.35;100.00
26635;BME280;14490;54.208;37.686;2023-06-04T07:39:14;99760.22;;;15.35;100.00
26635;BME280;14490;54.208;37.686;2023-06-04T07:41:43;99754.50;;;15.38;100.00
26635;BME280;14490;54.208;37.686;2023-06-04T07:44:12;99757.94;;;15.50;100.00
26635;BME280;14490;54.208;37.686;2023-06-04T07:46:40;99759.53;;;15.70;100.00
26635;BME280;14490;54.208;37.686;2023-06-04T07:49:08;99758.19;;;15.83;100.00
26635;BME280;14490;54.208;37.686;2023-06-04T07:51:36;99765.16;;;15.86;100.00
26635;BME280;14490;54.208;37.686;2023-06-04T07:54:03;99749.88;;;15.85;100.00
26635;BME280;14490;54.208;37.686;2023-06-04T07:56:31;99762.53;;;15.94;100.00
26635;BME280;14490;54.208;37.686;2023-06-04T07:58:58;99765.63;;;15.99;100.00
26635;BME280;14490;54.208;37.686;2023-06-04T08:01:27;99756.88;;;16.05;100.00
26635;BME280;14490;54.208;37.686;2023-06-04T08:03:56;99751.75;;;16.02;100.00
26635;BME280;14490;54.208;37.686;2023-06-04T08:06:24;99770.06;;;16.00;100.00
26635;BME280;14490;54.208;37.686;2023-06-04T08:08:52;99761.72;;;15.84;100.00
26635;BME280;14490;54.208;37.686;2023-06-04T08:11:20;99771.00;;;15.64;100.00
26635;BME280;14490;54.208;37.686;2023-06-04T08:13:48;99745.94;;;15.43;100.00
26635;BME280;14490;54.208;37.686;2023-06-04T08:16:15;99765.56;;;15.64;100.00
26635;BME280;14490;54.208;37.686;2023-06-04T08:18:44;99743.03;;;15.81;100.00
26635;BME280;14490;54.208;37.686;2023-06-04T08:21:24;99672.53;;;15.54;100.00
26635;BME280;14490;54.208;37.686;2023-06-04T08:24:01;99737.41;;;15.92;100.00
26635;BME280;14490;54.208;37.686;2023-06-04T08:26:28;99754.78;;;15.99;100.00
26635;BME280;14490;54.208;37.686;2023-06-04T08:29:04;99758.75;;;16.05;100.00
26635;BME280;14490;54.208;37.686;2023-06-04T08:31:41;99754.31;;;16.04;100.00
26635;BME280;14490;54.208;37.686;2023-06-04T08:34:09;99766.72;;;16.06;100.00
26635;BME280;14490;54.208;37.686;2023-06-04T08:36:37;99752.22;;;16.15;100.00
26635;BME280;14490;54.208;37.686;2023-06-04T08:39:04;99752.84;;;16.09;100.00
26635;BME280;14490;54.208;37.686;2023-06-04T08:41:39;99736.31;;;16.20;100.00
26635;BME280;14490;54.208;37.686;2023-06-04T08:44:10;99746.41;;;16.46;100.00
26635;BME280;14490;54.208;37.686;2023-06-04T08:46:39;99733.69;;;16.64;100.00
26635;BME280;14490;54.208;37.686;2023-06-04T08:49:09;99730.69;;;16.75;100.00
26635;BME280;14490;54.208;37.686;2023-06-04T08:51:39;99744.38;;;16.83;99.81
26635;BME280;14490;54.208;37.686;2023-06-04T08:54:08;99730.28;;;16.62;89.01
26635;BME280;14490;54.208;37.686;2023-06-04T08:56:36;99742.63;;;16.56;84.31
26635;BME280;14490;54.208;37.686;2023-06-04T08:59:05;99742.69;;;16.47;86.02
26635;BME280;14490;54.208;37.686;2023-06-04T09:01:33;99745.00;;;16.41;92.57
26635;BME280;14490;54.208;37.686;2023-06-04T09:04:04;99710.72;;;16.40;96.73
26635;BME280;14490;54.208;37.686;2023-06-04T09:06:34;99741.44;;;16.76;94.72
26635;BME280;14490;54.208;37.686;2023-06-04T09:09:05;99741.69;;;16.91;93.57
26635;BME280;14490;54.208;37.686;2023-06-04T09:11:35;99739.38;;;16.96;92.77
26635;BME280;14490;54.208;37.686;2023-06-04T09:14:07;99632.41;;;16.36;90.83
26635;BME280;14490;54.208;37.686;2023-06-04T09:16:42;99737.66;;;16.95;90.13
26635;BME280;14490;54.208;37.686;2023-06-04T09:19:10;99740.44;;;16.77;94.88
26635;BME280;14490;54.208;37.686;2023-06-04T09:21:50;99728.78;;;16.67;100.00
26635;BME280;14490;54.208;37.686;2023-06-04T09:24:19;99724.00;;;16.61;100.00
26635;BME280;14490;54.208;37.686;2023-06-04T09:26:47;99735.78;;;16.70;100.00
26635;BME280;14490;54.208;37.686;2023-06-04T09:29:15;99741.97;;;16.80;100.00
26635;BME280;14490;54.208;37.686;2023-06-04T09:31:45;99732.84;;;16.89;100.00
26635;BME280;14490;54.208;37.686;2023-06-04T09:34:12;99740.53;;;16.93;95.36
26635;BME280;14490;54.208;37.686;2023-06-04T09:36:40;99746.50;;;16.97;92.74
26635;BME280;14490;54.208;37.686;2023-06-04T09:39:18;99746.56;;;17.05;88.80
26635;BME280;14490;54.208;37.686;2023-06-04T09:41:57;99751.41;;;17.19;85.74
26635;BME280;14490;54.208;37.686;2023-06-04T09:44:28;99741.28;;;17.29;81.56
26635;BME280;14490;54.208;37.686;2023-06-04T09:46:57;99746.53;;;17.57;79.65
26635;BME280;14490;54.208;37.686;2023-06-04T09:49:24;99732.28;;;17.63;74.77
26635;BME280;14490;54.208;37.686;2023-06-04T09:51:54;99750.41;;;17.96;75.27
26635;BME280;14490;54.208;37.686;2023-06-04T09:54:35;99730.03;;;18.24;73.68
26635;BME280;14490;54.208;37.686;2023-06-04T09:57:03;99744.72;;;18.47;70.23
26635;BME280;14490;54.208;37.686;2023-06-04T09:59:36;99709.28;;;18.23;68.19
26635;BME280;14490;54.208;37.686;2023-06-04T10:02:06;99748.84;;;18.60;67.65
26635;BME280;14490;54.208;37.686;2023-06-04T10:04:36;99748.13;;;18.82;64.93
26635;BME280;14490;54.208;37.686;2023-06-04T10:07:06;99736.41;;;18.81;60.47
26635;BME280;14490;54.208;37.686;2023-06-04T10:09:38;99744.38;;;18.91;59.41
26635;BME280;14490;54.208;37.686;2023-06-04T10:12:14;99749.47;;;18.94;56.73
26635;BME280;14490;54.208;37.686;2023-06-04T10:14:47;99753.59;;;18.98;54.68
26635;BME280;14490;54.208;37.686;2023-06-04T10:17:21;99743.88;;;18.95;54.07
26635;BME280;14490;54.208;37.686;2023-06-04T10:19:51;99736.00;;;19.00;55.16
26635;BME280;14490;54.208;37.686;2023-06-04T10:22:20;99736.50;;;19.20;55.40
26635;BME280;14490;54.208;37.686;2023-06-04T10:24:51;99752.69;;;19.30;54.38
26635;BME280;14490;54.208;37.686;2023-06-04T10:27:18;99746.69;;;19.34;55.68
26635;BME280;14490;54.208;37.686;2023-06-04T10:29:49;99759.66;;;19.40;56.17
26635;BME280;14490;54.208;37.686;2023-06-04T10:32:17;99724.91;;;19.10;51.73
26635;BME280;14490;54.208;37.686;2023-06-04T10:34:46;99744.59;;;18.81;50.98
26635;BME280;14490;54.208;37.686;2023-06-04T10:37:19;99744.38;;;18.67;51.06
26635;BME280;14490;54.208;37.686;2023-06-04T10:39:52;99742.88;;;18.56;51.71
26635;BME280;14490;54.208;37.686;2023-06-04T10:42:21;99734.03;;;18.54;50.63
26635;BME280;14490;54.208;37.686;2023-06-04T10:44:50;99749.19;;;18.57;51.39
26635;BME280;14490;54.208;37.686;2023-06-04T10:47:19;99733.81;;;18.64;51.57
26635;BME280;14490;54.208;37.686;2023-06-04T10:49:49;99749.50;;;18.70;53.17
26635;BME280;14490;54.208;37.686;2023-06-04T10:52:18;99735.69;;;18.79;51.51
26635;BME280;14490;54.208;37.686;2023-06-04T10:54:47;99744.91;;;18.70;46.72
26635;BME280;14490;54.208;37.686;2023-06-04T10:57:17;99751.03;;;18.64;47.65
26635;BME280;14490;54.208;37.686;2023-06-04T10:59:53;99744.38;;;18.67;47.71
26635;BME280;14490;54.208;37.686;2023-06-04T11:02:21;99746.44;;;18.81;48.47
26635;BME280;14490;54.208;37.686;2023-06-04T11:04:59;99746.63;;;18.87;47.72
26635;BME280;14490;54.208;37.686;2023-06-04T11:07:41;99735.72;;;18.87;45.83
26635;BME280;14490;54.208;37.686;2023-06-04T11:10:10;99731.78;;;18.74;46.31
26635;BME280;14490;54.208;37.686;2023-06-04T11:12:44;99732.50;;;18.60;46.98
26635;BME280;14490;54.208;37.686;2023-06-04T11:15:12;99740.94;;;18.48;47.94
26635;BME280;14490;54.208;37.686;2023-06-04T11:17:50;99722.22;;;18.29;49.17
26635;BME280;14490;54.208;37.686;2023-06-04T11:20:18;99741.97;;;18.39;50.62
26635;BME280;14490;54.208;37.686;2023-06-04T11:22:53;99738.22;;;18.40;49.69
26635;BME280;14490;54.208;37.686;2023-06-04T11:25:23;99739.94;;;18.41;50.69
26635;BME280;14490;54.208;37.686;2023-06-04T11:27:53;99721.88;;;18.32;49.60
26635;BME280;14490;54.208;37.686;2023-06-04T11:30:22;99749.09;;;18.16;49.96
26635;BME280;14490;54.208;37.686;2023-06-04T11:32:50;99744.66;;;18.15;51.46
26635;BME280;14490;54.208;37.686;2023-06-04T11:35:27;99740.94;;;18.16;52.75
26635;BME280;14490;54.208;37.686;2023-06-04T11:37:55;99726.28;;;18.17;53.91
26635;BME280;14490;54.208;37.686;2023-06-04T11:40:23;99741.63;;;18.34;55.82
26635;BME280;14490;54.208;37.686;2023-06-04T11:42:54;99738.78;;;18.60;54.50
26635;BME280;14490;54.208;37.686;2023-06-04T11:45:22;99729.06;;;18.74;54.16
26635;BME280;14490;54.208;37.686;2023-06-04T11:47:52;99702.97;;;18.79;53.63
26635;BME280;14490;54.208;37.686;2023-06-04T11:50:21;99751.66;;;19.23;52.48
26635;BME280;14490;54.208;37.686;2023-06-04T11:52:52;99747.59;;;19.10;49.98
26635;BME280;14490;54.208;37.686;2023-06-04T11:55:20;99747.09;;;18.91;51.22
26635;BME280;14490;54.208;37.686;2023-06-04T11:57:48;99739.25;;;18.88;52.05
26635;BME280;14490;54.208;37.686;2023-06-04T12:00:18;99715.78;;;18.63;48.97
26635;BME280;14490;54.208;37.686;2023-06-04T12:02:51;99745.59;;;18.80;50.15
26635;BME280;14490;54.208;37.686;2023-06-04T12:05:20;99753.25;;;18.85;50.00
26635;BME280;14490;54.208;37.686;2023-06-04T12:07:52;99733.66;;;18.73;48.32
26635;BME280;14490;54.208;37.686;2023-06-04T12:10:22;99751.22;;;18.71;49.99
26635;BME280;14490;54.208;37.686;2023-06-04T12:12:54;99743.03;;;18.79;49.27
26635;BME280;14490;54.208;37.686;2023-06-04T12:15:25;99751.19;;;18.79;47.89
26635;BME280;14490;54.208;37.686;2023-06-04T12:17:55;99762.63;;;18.74;47.46
26635;BME280;14490;54.208;37.686;2023-06-04T12:20:35;99748.50;;;18.63;47.16
26635;BME280;14490;54.208;37.686;2023-06-04T12:23:04;99745.41;;;18.58;49.02
26635;BME280;14490;54.208;37.686;2023-06-04T12:25:32;99754.63;;;18.73;48.38
26635;BME280;14490;54.208;37.686;2023-06-04T12:28:00;99745.91;;;18.85;48.28
26635;BME280;14490;54.208;37.686;2023-06-04T12:30:37;99752.88;;;19.04;50.33
26635;BME280;14490;54.208;37.686;2023-06-04T12:33:07;99756.25;;;19.22;51.75
26635;BME280;14490;54.208;37.686;2023-06-04T12:35:35;99752.16;;;19.26;51.55
26635;BME280;14490;54.208;37.686;2023-06-04T12:38:03;99752.88;;;19.20;49.62
26635;BME280;14490;54.208;37.686;2023-06-04T12:40:34;99755.47;;;18.89;47.86
26635;BME280;14490;54.208;37.686;2023-06-04T12:43:01;99747.81;;;18.52;48.24
26635;BME280;14490;54.208;37.686;2023-06-04T12:45:29;99721.34;;;18.13;50.68
26635;BME280;14490;54.208;37.686;2023-06-04T12:47:57;99757.06;;;18.10;51.81
26635;BME280;14490;54.208;37.686;2023-06-04T12:50:27;99754.47;;;17.92;52.39
26635;BME280;14490;54.208;37.686;2023-06-04T12:52:55;99756.53;;;17.90;53.55
26635;BME280;14490;54.208;37.686;2023-06-04T12:55:22;99751.78;;;18.00;55.10
26635;BME280;14490;54.208;37.686;2023-06-04T12:57:49;99755.19;;;18.02;52.61